Time;durP1;ratioP1;P1;durP2;ratioP2;P2;SDS_P1;SDS_P2;PMS_P1;PMS_P2;Temp;Humidity;BMP_temperature;BMP_pressure;BME280_temperature;BME280_humidity;BME280_pressure;Samples;Min_cycle;Max_cycle;Signal;HPM_P1;HPM_P2
2021/06/15 00:02:11;;;;;;;7.43;4.70;;;;;;;13.69;100.00;96597.97;5022904;28;20576;-59
2021/06/15 00:04:39;;;;;;;8.90;4.70;;;;;;;13.69;100.00;96601.44;5022702;28;20057;-55
2021/06/15 00:07:09;;;;;;;7.80;5.13;;;;;;;13.82;100.00;96598.34;5021743;28;20080;-59
2021/06/15 00:09:38;;;;;;;6.60;4.90;;;;;;;13.85;100.00;96600.66;5021179;28;20084;-59
2021/06/15 00:12:09;;;;;;;8.85;5.20;;;;;;;13.70;100.00;96599.63;5021625;28;20496;-59
2021/06/15 00:14:38;;;;;;;9.02;5.30;;;;;;;13.70;100.00;96600.47;5021616;28;20062;-59
2021/06/15 00:17:07;;;;;;;7.60;5.25;;;;;;;13.78;100.00;96594.34;5020732;28;20069;-57
2021/06/15 00:19:35;;;;;;;9.60;5.43;;;;;;;13.64;100.00;96590.50;5022037;28;20517;-57
2021/06/15 00:22:04;;;;;;;7.78;5.28;;;;;;;13.44;100.00;96605.81;5023927;28;20077;-57
2021/06/15 00:24:34;;;;;;;6.35;5.13;;;;;;;13.45;100.00;96599.53;5024338;28;20076;-59
2021/06/15 00:27:02;;;;;;;8.07;5.18;;;;;;;13.41;100.00;96597.34;5020987;28;20065;-61
2021/06/15 00:29:31;;;;;;;8.93;5.07;;;;;;;13.37;100.00;96601.31;5022255;28;20068;-60
2021/06/15 00:32:00;;;;;;;9.05;5.25;;;;;;;13.40;100.00;96596.53;5023762;28;20552;-56
2021/06/15 00:34:28;;;;;;;5.63;4.82;;;;;;;13.14;100.00;96601.81;5020867;28;20062;-60
2021/06/15 00:36:56;;;;;;;6.93;5.22;;;;;;;13.36;100.00;96595.19;5029053;28;20111;-57
2021/06/15 00:39:25;;;;;;;7.22;5.00;;;;;;;13.35;100.00;96592.69;5020243;28;20087;-59
2021/06/15 00:41:55;;;;;;;8.63;5.40;;;;;;;13.38;100.00;96598.50;5020537;28;20068;-56
2021/06/15 00:44:23;;;;;;;7.80;5.27;;;;;;;13.37;100.00;96604.78;5021432;28;20069;-60
2021/06/15 00:46:51;;;;;;;5.95;4.88;;;;;;;13.30;100.00;96599.28;5021622;28;20092;-59
2021/06/15 00:49:26;;;;;;;8.55;5.05;;;;;;;13.32;100.00;96601.81;5019829;28;20493;-59
2021/06/15 00:51:55;;;;;;;8.73;5.00;;;;;;;13.29;100.00;96597.66;5024962;28;20081;-59
2021/06/15 00:54:24;;;;;;;9.07;5.10;;;;;;;13.14;100.00;96593.03;5016790;28;20073;-57
2021/06/15 00:56:52;;;;;;;13.15;5.57;;;;;;;12.99;100.00;96596.28;5024421;28;20473;-55
2021/06/15 00:59:22;;;;;;;8.32;4.90;;;;;;;13.05;100.00;96598.31;5017204;28;20061;-56
2021/06/15 01:01:50;;;;;;;10.15;4.88;;;;;;;13.07;100.00;96596.34;5025702;28;20068;-55
2021/06/15 01:04:19;;;;;;;10.98;5.30;;;;;;;13.14;100.00;96595.69;5019948;28;20088;-58
2021/06/15 01:06:54;;;;;;;8.13;4.88;;;;;;;13.22;100.00;96595.75;5024828;28;20129;-57
2021/06/15 01:09:28;;;;;;;8.75;5.07;;;;;;;12.96;100.00;96604.53;5021123;28;20073;-58
2021/06/15 01:12:01;;;;;;;10.15;5.53;;;;;;;12.93;100.00;96596.06;5022537;28;20065;-58
2021/06/15 01:14:40;;;;;;;13.48;5.10;;;;;;;13.00;100.00;96591.81;5020004;28;20064;-58
2021/06/15 01:17:14;;;;;;;6.57;4.95;;;;;;;13.05;100.00;96590.38;5023406;28;20696;-52
2021/06/15 01:20:06;;;;;;;10.23;5.32;;;;;;;13.00;100.00;96584.69;5019803;28;20068;-52
2021/06/15 01:23:14;;;;;;;6.47;4.28;;;;;;;12.83;100.00;96585.59;5021206;28;20057;-53
2021/06/15 01:26:04;;;;;;;6.20;4.95;;;;;;;12.78;100.00;96590.53;5019881;28;20073;-50
2021/06/15 01:28:36;;;;;;;8.23;4.88;;;;;;;12.82;100.00;96583.94;5022586;28;20065;-52
2021/06/15 01:31:08;;;;;;;7.63;5.10;;;;;;;12.94;100.00;96590.63;5019909;28;20085;-52
2021/06/15 01:33:39;;;;;;;6.07;4.88;;;;;;;12.95;100.00;96581.69;5020640;28;21374;-52
2021/06/15 01:36:09;;;;;;;5.57;4.90;;;;;;;12.84;100.00;96581.97;5018348;28;20554;-49
2021/06/15 01:38:41;;;;;;;11.48;5.20;;;;;;;12.92;100.00;96578.53;5021085;28;20061;-48
2021/06/15 01:41:12;;;;;;;8.60;4.97;;;;;;;12.94;100.00;96576.53;5019753;28;20127;-50
2021/06/15 01:43:43;;;;;;;9.65;4.97;;;;;;;12.80;100.00;96583.25;5020334;28;20430;-58
2021/06/15 01:46:13;;;;;;;6.93;4.85;;;;;;;12.62;100.00;96583.28;5019893;28;20160;-51
2021/06/15 01:48:47;;;;;;;7.20;5.07;;;;;;;12.58;100.00;96579.28;5025858;28;20080;-54
2021/06/15 01:51:16;;;;;;;11.68;5.45;;;;;;;12.35;100.00;96578.94;5017902;28;20061;-48
2021/06/15 01:53:49;;;;;;;11.13;5.53;;;;;;;12.23;100.00;96570.41;5020853;28;20552;-54
2021/06/15 01:56:18;;;;;;;9.23;5.70;;;;;;;12.38;100.00;96577.81;5018362;28;20076;-54
2021/06/15 01:58:48;;;;;;;8.93;5.50;;;;;;;12.25;100.00;96568.47;5022485;28;20122;-51
2021/06/15 02:01:18;;;;;;;11.32;4.95;;;;;;;12.28;100.00;96568.13;5015778;28;20083;-55
2021/06/15 02:03:47;;;;;;;9.25;5.35;;;;;;;12.14;100.00;96568.69;5021153;28;20093;-53
2021/06/15 02:06:19;;;;;;;9.50;4.95;;;;;;;12.13;100.00;96568.84;5019180;28;20060;-52
2021/06/15 02:08:50;;;;;;;9.25;5.35;;;;;;;12.09;100.00;96570.97;5019075;28;20081;-55
2021/06/15 02:11:18;;;;;;;;;;;;;;;12.09;100.00;96568.31;5017712;28;20084;-55
2021/06/15 02:13:48;;;;;;;6.97;5.00;;;;;;;12.08;100.00;96569.31;5016880;28;19987;-53
2021/06/15 02:16:17;;;;;;;8.65;4.65;;;;;;;12.00;100.00;96564.75;5016263;28;20096;-57
2021/06/15 02:18:49;;;;;;;9.27;4.80;;;;;;;11.95;100.00;96566.22;5025304;28;20081;-51
2021/06/15 02:21:18;;;;;;;7.22;4.65;;;;;;;11.74;100.00;96575.22;5023504;28;20076;-54
2021/06/15 02:23:48;;;;;;;7.93;4.57;;;;;;;11.70;100.00;96568.56;5020179;28;20084;-54
2021/06/15 02:26:19;;;;;;;6.18;4.32;;;;;;;11.29;100.00;96567.28;5017718;28;20065;-54
2021/06/15 02:28:49;;;;;;;6.70;4.53;;;;;;;11.46;100.00;96561.22;5019005;28;20076;-54
2021/06/15 02:31:21;;;;;;;6.25;4.30;;;;;;;11.50;100.00;96567.03;5016876;28;20092;-56
2021/06/15 02:33:53;;;;;;;8.82;5.22;;;;;;;11.33;100.00;96573.91;5019482;28;20080;-54
2021/06/15 02:36:25;;;;;;;8.30;5.32;;;;;;;11.37;100.00;96562.09;5019819;28;20469;-52
2021/06/15 02:38:56;;;;;;;8.85;5.57;;;;;;;11.35;100.00;96571.94;5019222;28;20072;-53
2021/06/15 02:41:25;;;;;;;8.05;4.90;;;;;;;11.40;100.00;96564.44;4999291;28;20084;-54
2021/06/15 02:43:58;;;;;;;13.45;5.38;;;;;;;11.48;100.00;96576.88;5014504;28;20633;-54
2021/06/15 02:46:31;;;;;;;11.90;5.93;;;;;;;11.45;100.00;96569.25;5019644;28;20461;-51
2021/06/15 02:49:01;;;;;;;11.02;5.90;;;;;;;11.49;100.00;96566.16;5017033;28;20163;-51
2021/06/15 02:51:32;;;;;;;11.63;6.32;;;;;;;11.55;100.00;96570.03;5017868;28;20073;-53
2021/06/15 02:54:09;;;;;;;11.40;5.63;;;;;;;11.49;100.00;96574.09;5000467;28;20072;-56
2021/06/15 02:56:40;;;;;;;15.90;6.55;;;;;;;11.49;100.00;96573.25;5020069;28;20104;-56
2021/06/15 02:59:10;;;;;;;9.75;5.95;;;;;;;11.54;100.00;96582.41;5017949;28;20749;-58
2021/06/15 03:01:38;;;;;;;14.65;6.38;;;;;;;11.45;100.00;96579.81;5004307;28;20080;-60
2021/06/15 03:04:07;;;;;;;10.07;6.35;;;;;;;11.44;100.00;96579.00;5018424;28;20084;-54
2021/06/15 03:06:35;;;;;;;8.75;5.95;;;;;;;11.76;100.00;96586.44;5024334;28;20231;-53
2021/06/15 03:09:04;;;;;;;7.78;6.00;;;;;;;11.70;100.00;96583.56;5005949;28;20085;-55
2021/06/15 03:11:33;;;;;;;7.32;6.25;;;;;;;11.62;100.00;96582.50;5025016;28;20065;-54
2021/06/15 03:14:06;;;;;;;7.53;6.20;;;;;;;11.69;100.00;96582.75;5021425;28;20076;-56
2021/06/15 03:16:36;;;;;;;9.20;6.18;;;;;;;11.76;100.00;96583.81;5007564;28;20061;-56
2021/06/15 03:19:07;;;;;;;6.90;6.20;;;;;;;11.75;100.00;96579.50;5025162;28;20080;-54
2021/06/15 03:21:40;;;;;;;8.45;6.40;;;;;;;11.58;100.00;96585.59;5003661;28;20084;-54
2021/06/15 03:24:10;;;;;;;10.43;6.03;;;;;;;11.70;100.00;96580.91;5023149;28;20529;-55
2021/06/15 03:26:40;;;;;;;8.93;6.30;;;;;;;11.69;100.00;96581.91;5022177;28;20528;-62
2021/06/15 03:29:11;;;;;;;10.10;6.30;;;;;;;11.90;100.00;96582.50;5022059;28;20092;-59
2021/06/15 03:31:42;;;;;;;10.55;6.57;;;;;;;11.98;100.00;96576.47;5023332;28;20076;-61
2021/06/15 03:34:13;;;;;;;9.07;6.00;;;;;;;12.18;100.00;96580.63;5024087;28;20468;-61
2021/06/15 03:36:42;;;;;;;12.10;5.70;;;;;;;12.24;100.00;96584.47;5021735;28;20497;-60
2021/06/15 03:39:15;;;;;;;8.65;5.47;;;;;;;12.31;100.00;96588.16;5021248;28;20085;-61
2021/06/15 03:41:44;;;;;;;8.93;5.40;;;;;;;12.44;100.00;96591.25;5022433;28;20065;-62
2021/06/15 03:44:14;;;;;;;10.45;6.13;;;;;;;12.51;100.00;96591.47;5026605;28;20499;-61
2021/06/15 03:46:44;;;;;;;8.18;6.15;;;;;;;12.37;100.00;96590.22;5020795;28;20081;-59
2021/06/15 03:49:14;;;;;;;8.82;5.47;;;;;;;12.39;100.00;96590.91;5021060;28;20088;-61
2021/06/15 03:51:47;;;;;;;7.53;5.40;;;;;;;12.51;100.00;96597.59;5025676;28;20081;-59
2021/06/15 03:54:16;;;;;;;7.88;5.63;;;;;;;12.91;100.00;96595.41;5025731;28;20077;-61
2021/06/15 03:56:46;;;;;;;6.25;5.25;;;;;;;14.88;100.00;96585.19;5024301;28;20087;-62
2021/06/15 03:59:17;;;;;;;6.65;5.20;;;;;;;16.55;100.00;96584.94;5023538;28;20144;-63
2021/06/15 04:01:49;;;;;;;8.70;4.60;;;;;;;17.37;100.00;96583.31;5020901;28;20073;-61
2021/06/15 04:04:18;;;;;;;6.28;4.50;;;;;;;18.40;93.49;96571.63;5004245;28;20458;-59
2021/06/15 04:06:50;;;;;;;10.18;4.68;;;;;;;18.27;97.01;96569.63;5024375;28;20072;-62
2021/06/15 04:09:21;;;;;;;7.43;4.35;;;;;;;19.92;78.95;96559.31;5020119;28;20068;-61
2021/06/15 04:11:50;;;;;;;7.50;4.70;;;;;;;19.89;76.57;96553.53;5020260;28;20068;-59
2021/06/15 04:14:19;;;;;;;7.32;4.90;;;;;;;21.26;65.88;96555.72;5025886;28;20070;-59
2021/06/15 04:16:50;;;;;;;7.00;5.18;;;;;;;21.35;64.22;96555.53;5022388;28;20072;-61
2021/06/15 04:19:24;;;;;;;8.52;4.70;;;;;;;20.24;72.51;96562.28;5024334;28;20081;-62
2021/06/15 04:21:53;;;;;;;11.98;6.00;;;;;;;20.86;67.68;96560.31;5021718;28;20525;-59
2021/06/15 04:24:25;;;;;;;6.97;4.82;;;;;;;21.95;60.96;96556.13;5023561;28;20076;-62
2021/06/15 04:26:57;;;;;;;9.68;4.32;;;;;;;22.31;59.00;96563.63;5021123;28;20065;-61
2021/06/15 04:29:26;;;;;;;7.68;4.60;;;;;;;22.91;53.50;96561.31;5018270;28;20103;-56
2021/06/15 04:31:58;;;;;;;8.25;4.72;;;;;;;22.85;53.90;96572.13;5021100;28;20080;-61
2021/06/15 04:34:27;;;;;;;9.30;4.82;;;;;;;22.74;55.00;96573.66;5023637;28;20081;-59
2021/06/15 04:36:58;;;;;;;6.90;4.95;;;;;;;22.66;56.27;96579.31;5025187;28;20093;-61
2021/06/15 04:39:30;;;;;;;5.63;5.13;;;;;;;23.30;52.95;96577.38;5021183;28;20065;-59
2021/06/15 04:42:00;;;;;;;6.63;4.75;;;;;;;23.22;53.95;96578.44;5021338;28;20068;-61
2021/06/15 04:44:32;;;;;;;7.90;5.45;;;;;;;24.71;47.65;96578.97;5025598;28;20536;-61
2021/06/15 04:47:06;;;;;;;7.55;5.40;;;;;;;24.29;48.69;96578.06;5023131;28;20061;-61
2021/06/15 04:49:44;;;;;;;7.88;5.15;;;;;;;24.46;48.48;96579.09;5017117;28;20069;-62
2021/06/15 04:52:15;;;;;;;7.55;4.68;;;;;;;24.11;49.49;96579.75;5024080;28;20096;-63
2021/06/15 04:54:47;;;;;;;8.82;5.15;;;;;;;23.49;53.19;96575.50;5022507;28;20099;-62
2021/06/15 04:57:20;;;;;;;7.97;4.97;;;;;;;23.85;51.23;96577.41;5024581;28;20076;-61
2021/06/15 04:59:51;;;;;;;6.75;4.90;;;;;;;24.96;47.74;96564.44;5022081;28;20501;-58
2021/06/15 05:02:22;;;;;;;5.63;5.05;;;;;;;25.71;46.38;96575.38;5022180;28;20069;-62
2021/06/15 05:04:51;;;;;;;8.35;5.07;;;;;;;25.53;46.43;96576.34;5022583;28;20073;-62
2021/06/15 05:07:20;;;;;;;9.38;4.93;;;;;;;25.46;46.64;96577.50;5022745;28;20089;-62
2021/06/15 05:09:50;;;;;;;8.68;5.38;;;;;;;24.60;49.67;96568.94;5020850;28;20073;-61
2021/06/15 05:12:19;;;;;;;;;;;;;;;24.85;47.30;96572.28;5022353;28;20084;-62
2021/06/15 05:14:48;;;;;;;8.13;5.63;;;;;;;25.44;47.52;96571.53;5021176;28;19948;-62
2021/06/15 05:17:21;;;;;;;8.20;4.55;;;;;;;24.09;52.32;96581.88;5021136;28;20075;-60
2021/06/15 05:19:50;;;;;;;8.68;5.05;;;;;;;24.75;49.11;96582.00;5019331;28;20072;-61
2021/06/15 05:22:25;;;;;;;6.55;4.70;;;;;;;25.08;47.73;96582.28;5016884;28;20080;-59
2021/06/15 05:24:54;;;;;;;8.85;5.10;;;;;;;24.57;49.57;96586.44;5019503;28;20638;-61
2021/06/15 05:27:24;;;;;;;8.40;5.63;;;;;;;25.26;46.76;96583.28;5019646;28;20077;-62
2021/06/15 05:29:53;;;;;;;9.00;5.70;;;;;;;25.36;48.76;96582.66;5013453;28;20148;-62
2021/06/15 05:32:29;;;;;;;6.00;4.80;;;;;;;22.97;56.38;96587.38;5019614;28;20513;-62
2021/06/15 05:34:58;;;;;;;6.97;5.20;;;;;;;24.17;51.98;96586.13;5016383;28;20057;-62
2021/06/15 05:37:26;;;;;;;5.85;4.95;;;;;;;24.22;52.48;96590.81;5022762;28;20085;-61
2021/06/15 05:39:56;;;;;;;10.85;5.63;;;;;;;24.05;53.38;96594.13;5023065;28;20069;-58
2021/06/15 05:42:25;;;;;;;9.93;5.43;;;;;;;24.72;50.33;96598.66;5022268;28;20073;-63
2021/06/15 05:44:53;;;;;;;6.03;5.30;;;;;;;24.57;49.54;96597.22;5021034;28;20069;-63
2021/06/15 05:47:22;;;;;;;7.97;5.20;;;;;;;24.54;49.54;96608.47;5022446;28;20065;-62
2021/06/15 05:49:51;;;;;;;8.75;5.53;;;;;;;25.10;47.85;96606.34;5014061;28;20069;-62
2021/06/15 05:52:20;;;;;;;8.30;5.75;;;;;;;23.68;52.79;96610.31;5024022;28;20093;-62
2021/06/15 05:54:48;;;;;;;8.10;5.40;;;;;;;23.63;56.21;96606.63;5021022;28;20077;-63
2021/06/15 05:57:18;;;;;;;8.23;6.07;;;;;;;22.62;60.49;96607.69;5018968;28;20077;-62
2021/06/15 05:59:46;;;;;;;9.40;5.47;;;;;;;23.97;56.39;96607.91;5021797;28;20061;-61
2021/06/15 06:02:14;;;;;;;6.40;5.03;;;;;;;25.41;52.53;96609.81;5016631;28;20076;-62
2021/06/15 06:05:01;;;;;;;8.05;5.18;;;;;;;24.54;56.29;96610.34;5018416;28;20091;-62
2021/06/15 06:10:17;;;;;;;12.10;6.32;;;;;;;22.70;69.44;96610.09;5016084;28;20083;-62
2021/06/15 06:12:45;;;;;;;8.48;5.93;;;;;;;22.50;73.13;96604.84;5022630;28;20482;-61
2021/06/15 06:15:16;;;;;;;8.20;5.90;;;;;;;22.91;67.00;96608.91;5019281;28;20092;-61
2021/06/15 06:17:44;;;;;;;8.63;5.97;;;;;;;22.31;71.00;96608.47;5015152;28;20069;-61
2021/06/15 06:20:16;;;;;;;8.48;6.00;;;;;;;22.69;65.95;96598.50;5018855;28;20075;-59
2021/06/15 06:22:47;;;;;;;10.32;6.00;;;;;;;22.35;67.00;96607.00;5017394;28;20087;-61
2021/06/15 06:25:16;;;;;;;10.20;6.68;;;;;;;21.79;71.23;96613.84;5022384;28;20096;-61
2021/06/15 06:27:45;;;;;;;9.32;5.65;;;;;;;21.85;72.72;96613.00;5022347;28;20080;-60
2021/06/15 06:30:14;;;;;;;12.88;6.80;;;;;;;22.36;74.80;96605.97;5018191;28;20072;-61
2021/06/15 06:32:43;;;;;;;8.97;6.23;;;;;;;22.00;78.00;96607.34;5017624;28;20077;-61
2021/06/15 06:35:12;;;;;;;8.05;6.47;;;;;;;21.89;79.48;96621.44;5019859;28;20072;-63
2021/06/15 06:37:41;;;;;;;14.98;6.72;;;;;;;21.91;76.51;96617.50;5017357;28;20087;-60
2021/06/15 06:40:12;;;;;;;9.75;6.07;;;;;;;21.94;77.34;96608.19;5022430;28;20081;-61
2021/06/15 06:42:41;;;;;;;9.80;6.05;;;;;;;22.00;76.27;96618.91;5023640;28;20096;-62
2021/06/15 06:45:11;;;;;;;11.40;7.22;;;;;;;22.13;81.23;96604.59;5025697;28;20061;-61
2021/06/15 06:47:39;;;;;;;9.73;6.95;;;;;;;22.31;76.19;96612.00;5023395;28;20072;-60
2021/06/15 06:50:09;;;;;;;8.20;6.30;;;;;;;22.38;72.76;96614.63;5025031;28;20061;-63
2021/06/15 06:52:38;;;;;;;10.40;6.60;;;;;;;22.27;70.57;96608.09;5025099;28;20068;-60
2021/06/15 06:55:07;;;;;;;12.05;6.80;;;;;;;22.38;71.30;96609.25;5025438;28;20088;-61
2021/06/15 06:57:37;;;;;;;9.02;6.28;;;;;;;22.48;72.78;96610.44;5020447;28;20389;-61
2021/06/15 07:00:06;;;;;;;7.70;6.03;;;;;;;22.86;68.16;96603.38;5022935;28;20445;-59
2021/06/15 07:02:35;;;;;;;9.65;5.80;;;;;;;22.73;64.61;96601.59;5022982;28;20065;-61
2021/06/15 07:05:04;;;;;;;8.82;5.50;;;;;;;22.74;66.20;96600.53;5024477;28;20077;-61
2021/06/15 07:07:33;;;;;;;7.75;4.93;;;;;;;22.65;64.92;96604.56;5020906;28;20529;-60
2021/06/15 07:10:01;;;;;;;9.98;5.28;;;;;;;23.18;61.49;96602.28;5024922;28;20096;-62
2021/06/15 07:12:30;;;;;;;7.43;5.05;;;;;;;22.69;60.73;96603.06;5025209;28;20187;-62
2021/06/15 07:14:59;;;;;;;9.18;5.15;;;;;;;23.20;55.48;96597.53;5022615;28;20088;-61
2021/06/15 07:17:28;;;;;;;6.82;4.70;;;;;;;23.62;54.12;96600.41;5020123;28;20079;-62
2021/06/15 07:19:56;;;;;;;9.43;4.35;;;;;;;23.53;48.80;96598.22;5020923;28;20516;-61
2021/06/15 07:22:25;;;;;;;5.80;4.05;;;;;;;23.34;48.50;96595.53;5024743;28;20120;-61
2021/06/15 07:24:53;;;;;;;10.30;4.53;;;;;;;23.77;48.66;96591.16;5021067;28;20080;-60
2021/06/15 07:27:22;;;;;;;6.60;3.67;;;;;;;23.61;48.16;96592.56;5023287;28;20069;-61
2021/06/15 07:29:50;;;;;;;7.35;4.45;;;;;;;23.17;50.50;96599.81;5023633;28;20633;-60
2021/06/15 07:32:20;;;;;;;6.68;4.30;;;;;;;23.23;51.64;96596.25;5021832;28;20474;-60
2021/06/15 07:34:49;;;;;;;8.70;4.32;;;;;;;23.83;50.15;96593.78;5022217;28;20529;-60
2021/06/15 07:37:17;;;;;;;6.95;3.83;;;;;;;23.68;49.00;96596.03;5025175;28;20076;-62
2021/06/15 07:39:46;;;;;;;6.13;4.18;;;;;;;23.92;47.86;96595.13;5025231;28;20089;-62
2021/06/15 07:42:14;;;;;;;4.50;3.42;;;;;;;24.30;45.21;96588.63;5026576;28;20065;-62
2021/06/15 07:44:43;;;;;;;6.47;3.50;;;;;;;24.45;44.91;96592.81;5022484;28;20529;-61
2021/06/15 07:47:12;;;;;;;7.65;3.90;;;;;;;24.80;43.31;96591.03;5023484;28;20072;-62
2021/06/15 07:49:42;;;;;;;7.15;3.47;;;;;;;24.47;44.80;96602.34;5021251;28;20057;-60
2021/06/15 07:52:10;;;;;;;5.55;3.60;;;;;;;24.23;45.79;96592.47;5022414;28;20096;-61
2021/06/15 07:54:41;;;;;;;6.35;3.53;;;;;;;24.34;44.27;96597.91;5022655;28;20084;-60
2021/06/15 07:57:10;;;;;;;7.82;3.45;;;;;;;24.52;44.32;96601.63;5024934;28;20517;-59
2021/06/15 07:59:38;;;;;;;6.93;3.47;;;;;;;24.18;43.13;96601.22;5022632;28;20790;-59
2021/06/15 08:02:07;;;;;;;7.25;3.33;;;;;;;24.42;42.77;96596.78;5022598;28;20587;-58
2021/06/15 08:04:35;;;;;;;6.63;3.60;;;;;;;24.46;43.29;96594.47;5026227;28;20472;-57
2021/06/15 08:07:05;;;;;;;5.40;3.50;;;;;;;25.00;41.93;96596.13;5024280;28;20093;-60
2021/06/15 08:09:34;;;;;;;5.80;3.20;;;;;;;24.94;38.03;96591.66;5021445;28;20343;-59
2021/06/15 08:12:03;;;;;;;6.25;3.33;;;;;;;24.63;38.51;96580.09;5021776;28;20069;-61
2021/06/15 08:14:31;;;;;;;6.37;3.50;;;;;;;24.50;40.14;96584.84;5022032;28;20075;-62
2021/06/15 08:17:00;;;;;;;7.97;3.15;;;;;;;24.79;39.30;96575.91;5022757;28;20061;-61
2021/06/15 08:19:29;;;;;;;7.90;3.50;;;;;;;24.97;42.10;96584.97;5021074;28;20553;-60
2021/06/15 08:21:57;;;;;;;8.30;3.90;;;;;;;25.19;42.09;96583.41;5022980;28;20084;-60
2021/06/15 08:24:27;;;;;;;5.95;3.13;;;;;;;24.50;40.22;96583.00;5020196;28;20065;-60
2021/06/15 08:26:55;;;;;;;5.05;3.30;;;;;;;24.78;39.54;96582.38;5019309;28;21803;-61
2021/06/15 08:29:24;;;;;;;8.48;3.40;;;;;;;25.25;40.16;96584.31;5025335;28;20073;-61
2021/06/15 08:31:52;;;;;;;6.82;3.65;;;;;;;25.92;39.19;96581.22;5022046;28;20158;-62
2021/06/15 08:34:21;;;;;;;4.13;2.97;;;;;;;25.37;39.31;96584.34;5016134;28;20077;-60
2021/06/15 08:36:49;;;;;;;6.65;3.90;;;;;;;25.39;39.64;96583.03;5024200;28;20089;-57
2021/06/15 08:39:18;;;;;;;6.05;3.40;;;;;;;25.90;39.74;96588.75;5022813;28;20076;-61
2021/06/15 08:41:48;;;;;;;6.13;3.05;;;;;;;25.52;37.13;96590.06;5021236;28;20065;-55
2021/06/15 08:44:16;;;;;;;5.68;2.95;;;;;;;25.79;35.66;96588.53;5023661;28;20068;-61
2021/06/15 08:46:46;;;;;;;8.57;3.00;;;;;;;25.88;36.16;96594.41;5019201;28;20073;-62
2021/06/15 08:49:15;;;;;;;5.30;3.00;;;;;;;25.52;36.96;96593.59;5024821;28;20717;-62
2021/06/15 08:51:45;;;;;;;6.20;2.80;;;;;;;26.08;35.83;96606.69;5022772;28;20471;-61
2021/06/15 08:54:17;;;;;;;6.40;2.85;;;;;;;26.14;33.55;96598.44;5021233;28;20072;-62
2021/06/15 08:56:47;;;;;;;3.92;2.63;;;;;;;26.17;33.82;96589.84;5024513;28;20529;-62
2021/06/15 08:59:21;;;;;;;4.97;2.70;;;;;;;26.08;34.58;96595.88;5022564;28;20084;-59
2021/06/15 09:01:51;;;;;;;7.28;2.63;;;;;;;26.34;33.69;96583.69;5025992;28;20076;-58
2021/06/15 09:04:19;;;;;;;;;;;;;;;26.48;33.45;96590.47;5017238;28;20646;-61
2021/06/15 09:06:49;;;;;;;4.78;2.50;;;;;;;26.22;33.77;96592.66;5025351;28;19968;-61
2021/06/15 09:09:18;;;;;;;4.73;2.60;;;;;;;26.19;34.44;96592.31;5023543;28;20073;-61
2021/06/15 09:11:50;;;;;;;5.85;2.60;;;;;;;25.73;34.41;96599.44;5020437;28;20068;-61
2021/06/15 09:14:19;;;;;;;5.68;3.03;;;;;;;26.09;33.64;96597.53;5018820;28;20116;-61
2021/06/15 09:16:48;;;;;;;3.67;2.50;;;;;;;26.50;35.30;96581.06;5022729;28;20065;-59
2021/06/15 09:19:18;;;;;;;5.63;2.90;;;;;;;26.38;34.34;96582.94;5013472;28;20084;-60
2021/06/15 09:21:48;;;;;;;5.00;2.85;;;;;;;27.03;34.72;96580.84;5022111;28;20069;-61
2021/06/15 09:24:19;;;;;;;;;;;;;;;26.46;34.66;96584.44;5022465;28;20074;-61
2021/06/15 09:27:05;;;;;;;7.15;2.78;;;;;;;26.62;34.19;96589.09;5022800;28;19964;-61
2021/06/15 09:29:51;;;;;;;4.53;3.08;;;;;;;27.14;33.83;96582.69;5016763;28;20061;-61
2021/06/15 09:32:22;;;;;;;5.32;2.72;;;;;;;27.29;33.46;96582.09;5023166;28;20070;-57
2021/06/15 09:34:56;;;;;;;5.93;2.55;;;;;;;26.55;33.80;96584.91;5020774;28;20494;-61
2021/06/15 09:37:36;;;;;;;6.80;2.63;;;;;;;27.10;33.33;96587.72;5022133;28;20100;-61
2021/06/15 09:40:11;;;;;;;8.10;2.93;;;;;;;27.27;33.99;96581.53;5020345;28;20069;-62
2021/06/15 09:42:59;;;;;;;8.05;3.70;;;;;;;27.13;34.03;96581.88;5022111;28;20255;-61
2021/06/15 09:45:30;;;;;;;5.22;2.88;;;;;;;27.17;33.10;96582.19;5016544;28;20069;-59
2021/06/15 09:48:26;;;;;;;6.25;2.78;;;;;;;27.23;32.94;96585.81;5024494;28;20072;-61
2021/06/15 09:50:56;;;;;;;3.25;2.33;;;;;;;27.61;32.52;96572.28;5020229;28;20072;-61
2021/06/15 09:53:27;;;;;;;4.30;2.72;;;;;;;27.52;33.43;96576.47;5021069;28;20442;-57
2021/06/15 09:55:57;;;;;;;5.53;2.97;;;;;;;27.39;35.22;96568.69;5019165;28;20064;-61
2021/06/15 09:58:47;;;;;;;5.93;3.20;;;;;;;27.62;35.15;96568.50;5022868;28;20123;-60
2021/06/15 10:01:34;;;;;;;6.78;2.90;;;;;;;27.33;33.51;96575.94;5015788;28;20135;-61
2021/06/15 10:04:17;;;;;;;6.35;3.38;;;;;;;27.32;33.44;96576.19;5022406;28;20084;-59
2021/06/15 10:06:47;;;;;;;4.25;2.95;;;;;;;27.51;34.63;96574.84;5020226;28;20346;-60
2021/06/15 10:09:24;;;;;;;7.40;3.22;;;;;;;27.66;34.37;96571.50;5019312;28;20110;-60
2021/06/15 10:11:53;;;;;;;5.38;3.25;;;;;;;27.87;34.41;96575.34;5019439;28;20084;-62
2021/06/15 10:14:23;;;;;;;8.73;3.75;;;;;;;27.71;35.63;96570.78;5016868;28;20127;-61
2021/06/15 10:16:52;;;;;;;5.93;3.30;;;;;;;28.04;35.30;96576.09;5020691;28;20065;-60
2021/06/15 10:19:21;;;;;;;6.70;3.38;;;;;;;28.05;35.65;96576.94;5020981;28;20474;-59
2021/06/15 10:21:49;;;;;;;4.95;3.42;;;;;;;28.00;36.30;96569.53;5020246;28;20096;-61
2021/06/15 10:24:22;;;;;;;13.57;3.50;;;;;;;27.39;36.21;96572.25;5022085;28;20472;-61
2021/06/15 10:27:01;;;;;;;5.00;3.25;;;;;;;27.82;35.18;96575.28;5016188;28;20573;-59
2021/06/15 10:29:32;;;;;;;5.43;3.13;;;;;;;27.61;35.12;96560.63;5022962;28;20125;-60
2021/06/15 10:32:10;;;;;;;6.10;3.30;;;;;;;27.74;36.71;96568.38;5018711;28;20089;-60
2021/06/15 10:34:54;;;;;;;6.85;2.97;;;;;;;27.94;35.08;96562.41;5019486;28;20084;-60
2021/06/15 10:37:56;;;;;;;7.55;3.78;;;;;;;27.87;36.07;96564.50;5015321;28;20089;-60
2021/06/15 10:40:49;;;;;;;7.07;3.17;;;;;;;28.15;34.16;96563.50;5019493;28;20081;-60
2021/06/15 10:43:45;;;;;;;6.50;3.08;;;;;;;27.55;33.05;96562.44;5019667;28;20540;-60
2021/06/15 10:46:31;;;;;;;4.63;3.00;;;;;;;28.22;33.32;96566.00;5015120;28;20146;-61
2021/06/15 10:49:02;;;;;;;5.07;2.72;;;;;;;28.44;33.57;96563.28;5024087;28;20394;-61
2021/06/15 10:51:36;;;;;;;6.20;3.13;;;;;;;28.10;33.80;96564.25;5000582;28;20046;-60
2021/06/15 10:54:29;;;;;;;5.18;3.33;;;;;;;27.91;33.52;96562.94;5019489;28;20081;-59
2021/06/15 10:57:15;;;;;;;4.85;2.63;;;;;;;28.22;33.27;96563.28;5019683;28;20076;-59
2021/06/15 11:00:05;;;;;;;5.68;2.92;;;;;;;28.82;31.80;96559.56;5021398;28;20074;-60
2021/06/15 11:02:36;;;;;;;4.53;2.95;;;;;;;28.70;31.65;96559.75;5017309;28;20070;-60
2021/06/15 11:05:40;;;;;;;4.53;2.95;;;;;;;28.45;32.90;96565.72;5017565;28;20073;-58
2021/06/15 11:08:20;;;;;;;5.53;2.78;;;;;;;28.12;32.70;96558.59;5017884;28;20065;-59
2021/06/15 11:10:54;;;;;;;5.88;2.75;;;;;;;28.79;34.15;96562.81;5021833;28;20437;-61
2021/06/15 11:13:43;;;;;;;5.57;2.67;;;;;;;29.41;32.48;96562.22;5016297;28;20134;-60
2021/06/15 11:16:23;;;;;;;5.32;3.00;;;;;;;28.60;32.71;96557.75;5021637;28;20088;-59
2021/06/15 11:19:28;;;;;;;4.28;2.47;;;;;;;29.17;31.24;96552.81;5020049;28;20552;-57
2021/06/15 11:21:59;;;;;;;4.53;2.90;;;;;;;29.46;33.42;96548.66;5018626;28;20096;-60
2021/06/15 11:24:29;;;;;;;5.28;2.80;;;;;;;29.52;31.18;96550.31;5017875;28;20458;-60
2021/06/15 11:26:59;;;;;;;5.95;3.15;;;;;;;29.26;31.92;96546.63;5022560;28;20485;-58
2021/06/15 11:29:31;;;;;;;6.57;2.50;;;;;;;29.08;32.15;96550.59;5022628;28;20072;-59
2021/06/15 11:32:17;;;;;;;4.03;2.75;;;;;;;28.57;31.86;96543.88;5020713;28;20076;-61
2021/06/15 11:35:17;;;;;;;8.57;2.53;;;;;;;29.14;30.88;96556.03;5021088;28;20073;-59
2021/06/15 11:37:49;;;;;;;4.93;2.50;;;;;;;28.91;31.13;96549.88;5023806;28;20093;-61
2021/06/15 11:40:27;;;;;;;4.30;2.40;;;;;;;29.48;30.39;96545.69;5016723;28;20085;-60
2021/06/15 11:42:56;;;;;;;4.38;2.60;;;;;;;29.73;30.58;96545.88;5025910;28;20084;-58
2021/06/15 11:45:33;;;;;;;4.10;2.40;;;;;;;29.25;30.68;96542.28;5021857;28;20065;-61
2021/06/15 11:48:16;;;;;;;5.78;2.85;;;;;;;29.10;31.21;96540.28;5020460;28;20084;-62
2021/06/15 11:50:46;;;;;;;6.13;2.65;;;;;;;29.73;30.95;96536.84;5015167;28;20057;-56
2021/06/15 11:53:18;;;;;;;4.35;2.65;;;;;;;29.26;32.01;96530.34;5022996;28;20069;-58
2021/06/15 11:55:48;;;;;;;5.47;2.60;;;;;;;29.36;30.76;96534.22;5021039;28;20073;-61
2021/06/15 11:58:18;;;;;;;7.50;2.60;;;;;;;29.86;30.47;96530.94;5020800;28;20085;-60